sensor_id;sensor_type;location;lat;lon;timestamp;P1;durP1;ratioP1;P2;durP2;ratioP2
17648;SDS011;8943;51.110;-4.158;2022-09-29T00:01:17;1.00;;;0.50;;
17648;SDS011;8943;51.110;-4.158;2022-09-29T00:03:45;0.97;;;0.40;;
17648;SDS011;8943;51.110;-4.158;2022-09-29T00:06:14;1.23;;;0.43;;
17648;SDS011;8943;51.110;-4.158;2022-09-29T00:08:44;2.30;;;0.47;;
17648;SDS011;8943;51.110;-4.158;2022-09-29T00:11:13;3.10;;;0.47;;
17648;SDS011;8943;51.110;-4.158;2022-09-29T00:13:44;3.70;;;0.80;;
17648;SDS011;8943;51.110;-4.158;2022-09-29T00:16:14;1.20;;;0.53;;
17648;SDS011;8943;51.110;-4.158;2022-09-29T00:18:42;1.83;;;0.40;;
17648;SDS011;8943;51.110;-4.158;2022-09-29T00:21:11;1.40;;;0.40;;
17648;SDS011;8943;51.110;-4.158;2022-09-29T00:23:40;2.13;;;0.50;;
17648;SDS011;8943;51.110;-4.158;2022-09-29T00:26:10;0.87;;;0.40;;
17648;SDS011;8943;51.110;-4.158;2022-09-29T00:28:40;3.60;;;0.97;;
17648;SDS011;8943;51.110;-4.158;2022-09-29T00:31:13;2.13;;;0.57;;
17648;SDS011;8943;51.110;-4.158;2022-09-29T00:33:42;3.73;;;0.60;;
17648;SDS011;8943;51.110;-4.158;2022-09-29T00:36:11;3.77;;;0.70;;
17648;SDS011;8943;51.110;-4.158;2022-09-29T00:38:40;2.97;;;0.40;;
17648;SDS011;8943;51.110;-4.158;2022-09-29T00:41:11;2.90;;;0.70;;
17648;SDS011;8943;51.110;-4.158;2022-09-29T00:43:47;1.57;;;0.50;;
17648;SDS011;8943;51.110;-4.158;2022-09-29T00:46:29;3.63;;;0.63;;
17648;SDS011;8943;51.110;-4.158;2022-09-29T00:49:04;5.10;;;0.50;;
17648;SDS011;8943;51.110;-4.158;2022-09-29T00:51:38;1.40;;;0.40;;
17648;SDS011;8943;51.110;-4.158;2022-09-29T00:54:10;3.07;;;0.60;;
17648;SDS011;8943;51.110;-4.158;2022-09-29T00:56:38;3.00;;;0.77;;
17648;SDS011;8943;51.110;-4.158;2022-09-29T00:59:11;2.47;;;0.40;;
17648;SDS011;8943;51.110;-4.158;2022-09-29T01:01:42;5.20;;;0.93;;
17648;SDS011;8943;51.110;-4.158;2022-09-29T01:04:12;5.40;;;0.50;;
17648;SDS011;8943;51.110;-4.158;2022-09-29T01:06:44;2.80;;;0.60;;
17648;SDS011;8943;51.110;-4.158;2022-09-29T01:09:17;4.20;;;0.60;;
17648;SDS011;8943;51.110;-4.158;2022-09-29T01:11:48;5.77;;;0.50;;
17648;SDS011;8943;51.110;-4.158;2022-09-29T01:14:18;3.97;;;0.87;;
17648;SDS011;8943;51.110;-4.158;2022-09-29T01:16:47;2.30;;;0.60;;
17648;SDS011;8943;51.110;-4.158;2022-09-29T01:19:16;3.70;;;0.77;;
17648;SDS011;8943;51.110;-4.158;2022-09-29T01:21:52;4.17;;;0.90;;
17648;SDS011;8943;51.110;-4.158;2022-09-29T01:24:35;7.93;;;0.73;;
17648;SDS011;8943;51.110;-4.158;2022-09-29T01:27:23;5.83;;;0.80;;
17648;SDS011;8943;51.110;-4.158;2022-09-29T01:30:13;4.43;;;0.63;;
17648;SDS011;8943;51.110;-4.158;2022-09-29T01:35:44;2.80;;;0.70;;
17648;SDS011;8943;51.110;-4.158;2022-09-29T01:41:09;3.53;;;0.80;;
17648;SDS011;8943;51.110;-4.158;2022-09-29T01:43:45;3.77;;;0.70;;
17648;SDS011;8943;51.110;-4.158;2022-09-29T01:46:21;1.30;;;0.60;;
17648;SDS011;8943;51.110;-4.158;2022-09-29T01:48:54;0.70;;;0.37;;
17648;SDS011;8943;51.110;-4.158;2022-09-29T01:51:27;6.93;;;1.03;;
17648;SDS011;8943;51.110;-4.158;2022-09-29T01:53:59;3.23;;;0.80;;
17648;SDS011;8943;51.110;-4.158;2022-09-29T01:56:33;5.10;;;0.97;;
17648;SDS011;8943;51.110;-4.158;2022-09-29T01:59:07;5.00;;;0.83;;
17648;SDS011;8943;51.110;-4.158;2022-09-29T02:01:42;6.23;;;0.90;;
17648;SDS011;8943;51.110;-4.158;2022-09-29T02:04:17;5.60;;;1.03;;
17648;SDS011;8943;51.110;-4.158;2022-09-29T02:06:52;3.53;;;0.70;;
17648;SDS011;8943;51.110;-4.158;2022-09-29T02:09:27;3.30;;;1.07;;
17648;SDS011;8943;51.110;-4.158;2022-09-29T02:12:00;2.50;;;0.50;;
17648;SDS011;8943;51.110;-4.158;2022-09-29T02:14:35;4.23;;;0.97;;
17648;SDS011;8943;51.110;-4.158;2022-09-29T02:17:09;5.63;;;0.80;;
17648;SDS011;8943;51.110;-4.158;2022-09-29T02:19:56;3.93;;;1.00;;
17648;SDS011;8943;51.110;-4.158;2022-09-29T02:22:24;7.30;;;0.80;;
17648;SDS011;8943;51.110;-4.158;2022-09-29T02:24:53;7.97;;;0.90;;
17648;SDS011;8943;51.110;-4.158;2022-09-29T02:27:25;2.93;;;1.03;;
17648;SDS011;8943;51.110;-4.158;2022-09-29T02:29:58;4.13;;;1.00;;
17648;SDS011;8943;51.110;-4.158;2022-09-29T02:32:27;3.43;;;1.00;;
17648;SDS011;8943;51.110;-4.158;2022-09-29T02:34:59;3.20;;;1.00;;
17648;SDS011;8943;51.110;-4.158;2022-09-29T02:37:41;1.93;;;0.50;;
17648;SDS011;8943;51.110;-4.158;2022-09-29T02:40:35;4.73;;;0.90;;
17648;SDS011;8943;51.110;-4.158;2022-09-29T02:43:16;5.37;;;1.20;;
17648;SDS011;8943;51.110;-4.158;2022-09-29T02:45:56;6.37;;;1.33;;
17648;SDS011;8943;51.110;-4.158;2022-09-29T02:48:42;3.13;;;0.80;;
17648;SDS011;8943;51.110;-4.158;2022-09-29T02:51:26;5.80;;;1.10;;
17648;SDS011;8943;51.110;-4.158;2022-09-29T02:54:02;3.23;;;1.00;;
17648;SDS011;8943;51.110;-4.158;2022-09-29T02:56:48;9.33;;;1.43;;
17648;SDS011;8943;51.110;-4.158;2022-09-29T02:59:26;3.67;;;1.20;;
17648;SDS011;8943;51.110;-4.158;2022-09-29T03:02:02;9.93;;;1.60;;
17648;SDS011;8943;51.110;-4.158;2022-09-29T03:04:30;8.40;;;1.70;;
17648;SDS011;8943;51.110;-4.158;2022-09-29T03:07:00;11.73;;;1.83;;
17648;SDS011;8943;51.110;-4.158;2022-09-29T03:09:29;6.80;;;1.47;;
17648;SDS011;8943;51.110;-4.158;2022-09-29T03:11:58;8.73;;;1.63;;
17648;SDS011;8943;51.110;-4.158;2022-09-29T03:14:27;8.07;;;1.70;;
17648;SDS011;8943;51.110;-4.158;2022-09-29T03:16:55;9.43;;;1.20;;
17648;SDS011;8943;51.110;-4.158;2022-09-29T03:19:24;11.10;;;1.57;;
17648;SDS011;8943;51.110;-4.158;2022-09-29T03:21:52;4.90;;;1.47;;
17648;SDS011;8943;51.110;-4.158;2022-09-29T03:24:22;8.70;;;1.67;;
17648;SDS011;8943;51.110;-4.158;2022-09-29T03:26:50;6.80;;;1.53;;
17648;SDS011;8943;51.110;-4.158;2022-09-29T03:29:18;13.60;;;1.80;;
17648;SDS011;8943;51.110;-4.158;2022-09-29T03:31:47;9.03;;;1.83;;
17648;SDS011;8943;51.110;-4.158;2022-09-29T03:34:17;10.37;;;1.83;;
17648;SDS011;8943;51.110;-4.158;2022-09-29T03:36:46;6.40;;;1.07;;
17648;SDS011;8943;51.110;-4.158;2022-09-29T03:39:14;6.17;;;1.63;;
17648;SDS011;8943;51.110;-4.158;2022-09-29T03:41:44;10.13;;;1.80;;
17648;SDS011;8943;51.110;-4.158;2022-09-29T03:44:14;8.23;;;1.97;;
17648;SDS011;8943;51.110;-4.158;2022-09-29T03:46:43;5.93;;;1.77;;
17648;SDS011;8943;51.110;-4.158;2022-09-29T03:49:11;7.30;;;1.93;;
17648;SDS011;8943;51.110;-4.158;2022-09-29T03:51:41;7.93;;;1.77;;
17648;SDS011;8943;51.110;-4.158;2022-09-29T03:54:10;13.53;;;2.23;;
17648;SDS011;8943;51.110;-4.158;2022-09-29T03:56:38;8.23;;;2.00;;
17648;SDS011;8943;51.110;-4.158;2022-09-29T03:59:08;6.57;;;1.87;;
17648;SDS011;8943;51.110;-4.158;2022-09-29T04:01:37;10.00;;;1.70;;
17648;SDS011;8943;51.110;-4.158;2022-09-29T04:04:07;9.23;;;2.10;;
17648;SDS011;8943;51.110;-4.158;2022-09-29T04:06:36;10.50;;;1.90;;
17648;SDS011;8943;51.110;-4.158;2022-09-29T04:09:04;8.10;;;1.60;;
17648;SDS011;8943;51.110;-4.158;2022-09-29T04:11:32;9.70;;;1.73;;
17648;SDS011;8943;51.110;-4.158;2022-09-29T04:14:00;9.10;;;1.47;;
17648;SDS011;8943;51.110;-4.158;2022-09-29T04:16:30;4.20;;;1.37;;
17648;SDS011;8943;51.110;-4.158;2022-09-29T04:18:58;4.57;;;1.47;;
17648;SDS011;8943;51.110;-4.158;2022-09-29T04:21:26;8.53;;;2.27;;
17648;SDS011;8943;51.110;-4.158;2022-09-29T04:23:54;9.33;;;2.00;;
17648;SDS011;8943;51.110;-4.158;2022-09-29T04:26:23;11.07;;;2.10;;
17648;SDS011;8943;51.110;-4.158;2022-09-29T04:28:54;7.33;;;1.50;;
17648;SDS011;8943;51.110;-4.158;2022-09-29T04:31:22;9.27;;;1.97;;
17648;SDS011;8943;51.110;-4.158;2022-09-29T04:33:52;8.87;;;2.40;;
17648;SDS011;8943;51.110;-4.158;2022-09-29T04:36:20;9.17;;;2.30;;
17648;SDS011;8943;51.110;-4.158;2022-09-29T04:38:49;6.70;;;2.17;;
17648;SDS011;8943;51.110;-4.158;2022-09-29T04:41:18;4.10;;;1.43;;
17648;SDS011;8943;51.110;-4.158;2022-09-29T04:43:47;11.30;;;2.47;;
17648;SDS011;8943;51.110;-4.158;2022-09-29T04:46:45;9.90;;;2.07;;
17648;SDS011;8943;51.110;-4.158;2022-09-29T04:49:30;9.20;;;2.60;;
17648;SDS011;8943;51.110;-4.158;2022-09-29T04:52:42;8.17;;;1.80;;
17648;SDS011;8943;51.110;-4.158;2022-09-29T04:55:43;11.53;;;2.00;;
17648;SDS011;8943;51.110;-4.158;2022-09-29T04:58:55;12.77;;;1.90;;
17648;SDS011;8943;51.110;-4.158;2022-09-29T05:01:24;10.57;;;2.03;;
17648;SDS011;8943;51.110;-4.158;2022-09-29T05:03:57;13.50;;;2.30;;
17648;SDS011;8943;51.110;-4.158;2022-09-29T05:06:33;13.40;;;2.10;;
17648;SDS011;8943;51.110;-4.158;2022-09-29T05:09:06;7.97;;;1.70;;
17648;SDS011;8943;51.110;-4.158;2022-09-29T05:11:40;7.70;;;2.00;;
17648;SDS011;8943;51.110;-4.158;2022-09-29T05:14:10;9.03;;;2.13;;
17648;SDS011;8943;51.110;-4.158;2022-09-29T05:16:42;8.27;;;1.63;;
17648;SDS011;8943;51.110;-4.158;2022-09-29T05:24:32;17.40;;;2.83;;
17648;SDS011;8943;51.110;-4.158;2022-09-29T05:27:16;9.77;;;1.90;;
17648;SDS011;8943;51.110;-4.158;2022-09-29T05:29:45;8.47;;;1.40;;
17648;SDS011;8943;51.110;-4.158;2022-09-29T05:32:13;6.17;;;1.60;;
17648;SDS011;8943;51.110;-4.158;2022-09-29T05:34:42;10.50;;;1.97;;
17648;SDS011;8943;51.110;-4.158;2022-09-29T05:37:12;8.60;;;1.90;;
17648;SDS011;8943;51.110;-4.158;2022-09-29T05:39:40;9.80;;;1.47;;
17648;SDS011;8943;51.110;-4.158;2022-09-29T05:42:10;7.07;;;1.23;;
17648;SDS011;8943;51.110;-4.158;2022-09-29T05:44:41;10.57;;;1.83;;
17648;SDS011;8943;51.110;-4.158;2022-09-29T05:47:09;7.60;;;1.57;;
17648;SDS011;8943;51.110;-4.158;2022-09-29T05:49:37;7.87;;;1.90;;
17648;SDS011;8943;51.110;-4.158;2022-09-29T05:52:06;4.07;;;1.20;;
17648;SDS011;8943;51.110;-4.158;2022-09-29T05:54:36;5.47;;;1.27;;
17648;SDS011;8943;51.110;-4.158;2022-09-29T05:57:04;6.53;;;1.17;;
17648;SDS011;8943;51.110;-4.158;2022-09-29T05:59:33;9.10;;;1.20;;
17648;SDS011;8943;51.110;-4.158;2022-09-29T06:02:02;6.17;;;1.50;;
17648;SDS011;8943;51.110;-4.158;2022-09-29T06:04:31;7.20;;;1.10;;
17648;SDS011;8943;51.110;-4.158;2022-09-29T06:07:05;5.63;;;1.10;;
17648;SDS011;8943;51.110;-4.158;2022-09-29T06:09:33;5.03;;;1.00;;
17648;SDS011;8943;51.110;-4.158;2022-09-29T06:12:03;5.33;;;1.23;;
17648;SDS011;8943;51.110;-4.158;2022-09-29T06:14:32;6.57;;;0.90;;
17648;SDS011;8943;51.110;-4.158;2022-09-29T06:17:00;2.80;;;0.90;;
17648;SDS011;8943;51.110;-4.158;2022-09-29T06:19:29;3.83;;;1.00;;
17648;SDS011;8943;51.110;-4.158;2022-09-29T06:21:57;6.17;;;1.03;;
17648;SDS011;8943;51.110;-4.158;2022-09-29T06:24:25;5.83;;;1.20;;
17648;SDS011;8943;51.110;-4.158;2022-09-29T06:26:54;2.37;;;0.80;;
17648;SDS011;8943;51.110;-4.158;2022-09-29T06:29:23;2.70;;;0.77;;
17648;SDS011;8943;51.110;-4.158;2022-09-29T06:31:52;3.80;;;0.90;;
17648;SDS011;8943;51.110;-4.158;2022-09-29T06:34:20;3.03;;;1.07;;
17648;SDS011;8943;51.110;-4.158;2022-09-29T06:36:48;2.40;;;0.90;;
17648;SDS011;8943;51.110;-4.158;2022-09-29T06:39:34;2.87;;;1.00;;
17648;SDS011;8943;51.110;-4.158;2022-09-29T06:42:02;2.73;;;0.90;;
17648;SDS011;8943;51.110;-4.158;2022-09-29T06:44:33;11.90;;;1.27;;
17648;SDS011;8943;51.110;-4.158;2022-09-29T06:47:01;3.57;;;0.97;;
17648;SDS011;8943;51.110;-4.158;2022-09-29T06:49:29;1.70;;;0.67;;
17648;SDS011;8943;51.110;-4.158;2022-09-29T06:51:57;2.97;;;0.73;;
17648;SDS011;8943;51.110;-4.158;2022-09-29T06:54:37;2.87;;;0.83;;
17648;SDS011;8943;51.110;-4.158;2022-09-29T06:57:05;2.87;;;0.50;;
17648;SDS011;8943;51.110;-4.158;2022-09-29T06:59:36;3.97;;;0.60;;
17648;SDS011;8943;51.110;-4.158;2022-09-29T07:02:08;3.80;;;0.70;;
17648;SDS011;8943;51.110;-4.158;2022-09-29T07:04:37;0.67;;;0.50;;
17648;SDS011;8943;51.110;-4.158;2022-09-29T07:07:05;2.40;;;0.57;;
17648;SDS011;8943;51.110;-4.158;2022-09-29T07:09:34;3.37;;;1.10;;
17648;SDS011;8943;51.110;-4.158;2022-09-29T07:12:02;2.20;;;0.77;;
17648;SDS011;8943;51.110;-4.158;2022-09-29T07:14:31;4.00;;;1.10;;
17648;SDS011;8943;51.110;-4.158;2022-09-29T07:17:01;1.40;;;0.80;;
17648;SDS011;8943;51.110;-4.158;2022-09-29T07:19:29;3.37;;;1.17;;
17648;SDS011;8943;51.110;-4.158;2022-09-29T07:21:57;3.70;;;0.87;;
17648;SDS011;8943;51.110;-4.158;2022-09-29T07:24:26;4.87;;;0.87;;
17648;SDS011;8943;51.110;-4.158;2022-09-29T07:26:54;9.13;;;1.00;;
17648;SDS011;8943;51.110;-4.158;2022-09-29T07:29:22;1.23;;;0.80;;
17648;SDS011;8943;51.110;-4.158;2022-09-29T07:31:50;2.93;;;0.80;;
17648;SDS011;8943;51.110;-4.158;2022-09-29T07:34:22;3.00;;;0.60;;
17648;SDS011;8943;51.110;-4.158;2022-09-29T07:36:50;1.40;;;0.50;;
17648;SDS011;8943;51.110;-4.158;2022-09-29T07:39:18;1.63;;;0.73;;
17648;SDS011;8943;51.110;-4.158;2022-09-29T07:41:48;1.90;;;0.50;;
17648;SDS011;8943;51.110;-4.158;2022-09-29T07:44:17;3.37;;;0.73;;
17648;SDS011;8943;51.110;-4.158;2022-09-29T07:46:47;3.43;;;1.00;;
17648;SDS011;8943;51.110;-4.158;2022-09-29T07:49:15;2.37;;;0.60;;
17648;SDS011;8943;51.110;-4.158;2022-09-29T07:51:44;2.87;;;0.70;;
17648;SDS011;8943;51.110;-4.158;2022-09-29T07:54:13;1.77;;;0.53;;
17648;SDS011;8943;51.110;-4.158;2022-09-29T07:56:41;2.40;;;1.00;;
17648;SDS011;8943;51.110;-4.158;2022-09-29T07:59:09;2.40;;;0.80;;
17648;SDS011;8943;51.110;-4.158;2022-09-29T08:01:38;2.33;;;0.77;;
17648;SDS011;8943;51.110;-4.158;2022-09-29T08:04:06;3.87;;;0.83;;
17648;SDS011;8943;51.110;-4.158;2022-09-29T08:06:34;3.87;;;0.70;;
17648;SDS011;8943;51.110;-4.158;2022-09-29T08:09:04;5.60;;;0.60;;
17648;SDS011;8943;51.110;-4.158;2022-09-29T08:11:32;1.20;;;0.47;;
17648;SDS011;8943;51.110;-4.158;2022-09-29T08:14:05;2.30;;;0.70;;
17648;SDS011;8943;51.110;-4.158;2022-09-29T08:16:33;3.27;;;0.63;;
17648;SDS011;8943;51.110;-4.158;2022-09-29T08:19:02;3.37;;;0.77;;
17648;SDS011;8943;51.110;-4.158;2022-09-29T08:21:32;5.23;;;0.97;;
17648;SDS011;8943;51.110;-4.158;2022-09-29T08:24:04;1.60;;;0.30;;
17648;SDS011;8943;51.110;-4.158;2022-09-29T08:26:34;2.40;;;0.90;;
17648;SDS011;8943;51.110;-4.158;2022-09-29T08:29:09;1.80;;;0.40;;
17648;SDS011;8943;51.110;-4.158;2022-09-29T08:31:42;1.67;;;0.80;;
17648;SDS011;8943;51.110;-4.158;2022-09-29T08:34:10;2.77;;;0.80;;
17648;SDS011;8943;51.110;-4.158;2022-09-29T08:36:39;3.40;;;0.83;;
17648;SDS011;8943;51.110;-4.158;2022-09-29T08:39:09;1.47;;;0.50;;
17648;SDS011;8943;51.110;-4.158;2022-09-29T08:41:42;1.80;;;0.67;;
17648;SDS011;8943;51.110;-4.158;2022-09-29T08:44:17;3.90;;;0.60;;
17648;SDS011;8943;51.110;-4.158;2022-09-29T08:47:04;0.93;;;0.30;;
17648;SDS011;8943;51.110;-4.158;2022-09-29T08:49:41;3.67;;;0.60;;
17648;SDS011;8943;51.110;-4.158;2022-09-29T08:52:14;1.67;;;0.50;;
17648;SDS011;8943;51.110;-4.158;2022-09-29T08:54:47;5.07;;;1.57;;
17648;SDS011;8943;51.110;-4.158;2022-09-29T08:57:19;2.50;;;0.37;;
17648;SDS011;8943;51.110;-4.158;2022-09-29T08:59:49;0.40;;;0.23;;
17648;SDS011;8943;51.110;-4.158;2022-09-29T09:02:35;0.77;;;0.40;;
17648;SDS011;8943;51.110;-4.158;2022-09-29T09:05:27;3.90;;;0.90;;
17648;SDS011;8943;51.110;-4.158;2022-09-29T09:08:20;1.23;;;0.40;;
17648;SDS011;8943;51.110;-4.158;2022-09-29T09:11:03;3.03;;;0.40;;
17648;SDS011;8943;51.110;-4.158;2022-09-29T09:13:47;1.87;;;0.90;;
17648;SDS011;8943;51.110;-4.158;2022-09-29T09:16:25;2.47;;;0.60;;
17648;SDS011;8943;51.110;-4.158;2022-09-29T09:19:11;3.13;;;0.77;;
17648;SDS011;8943;51.110;-4.158;2022-09-29T09:21:58;4.77;;;0.80;;
17648;SDS011;8943;51.110;-4.158;2022-09-29T09:24:36;2.17;;;0.50;;
17648;SDS011;8943;51.110;-4.158;2022-09-29T09:27:14;2.63;;;0.60;;
17648;SDS011;8943;51.110;-4.158;2022-09-29T09:29:48;2.27;;;0.67;;
17648;SDS011;8943;51.110;-4.158;2022-09-29T09:32:24;4.13;;;0.90;;
17648;SDS011;8943;51.110;-4.158;2022-09-29T09:34:56;1.97;;;0.60;;
17648;SDS011;8943;51.110;-4.158;2022-09-29T09:37:46;1.33;;;0.40;;
17648;SDS011;8943;51.110;-4.158;2022-09-29T09:40:15;1.83;;;0.70;;
17648;SDS011;8943;51.110;-4.158;2022-09-29T09:42:51;1.17;;;0.50;;
17648;SDS011;8943;51.110;-4.158;2022-09-29T09:45:26;0.87;;;0.40;;
17648;SDS011;8943;51.110;-4.158;2022-09-29T09:47:58;1.20;;;0.50;;
17648;SDS011;8943;51.110;-4.158;2022-09-29T09:50:38;1.37;;;0.53;;
17648;SDS011;8943;51.110;-4.158;2022-09-29T09:53:10;1.70;;;0.60;;
17648;SDS011;8943;51.110;-4.158;2022-09-29T09:55:41;3.37;;;0.70;;
17648;SDS011;8943;51.110;-4.158;2022-09-29T09:58:15;7.07;;;0.90;;
17648;SDS011;8943;51.110;-4.158;2022-09-29T10:01:08;1.50;;;0.73;;
17648;SDS011;8943;51.110;-4.158;2022-09-29T10:03:37;2.03;;;0.80;;
17648;SDS011;8943;51.110;-4.158;2022-09-29T10:06:06;5.43;;;0.60;;
17648;SDS011;8943;51.110;-4.158;2022-09-29T10:08:35;1.73;;;0.40;;
17648;SDS011;8943;51.110;-4.158;2022-09-29T10:11:14;1.83;;;0.67;;
17648;SDS011;8943;51.110;-4.158;2022-09-29T10:13:51;4.00;;;0.93;;
17648;SDS011;8943;51.110;-4.158;2022-09-29T10:16:27;1.90;;;0.57;;
17648;SDS011;8943;51.110;-4.158;2022-09-29T10:19:03;1.57;;;0.77;;
17648;SDS011;8943;51.110;-4.158;2022-09-29T10:21:35;0.97;;;0.50;;
17648;SDS011;8943;51.110;-4.158;2022-09-29T10:24:05;2.03;;;0.57;;
17648;SDS011;8943;51.110;-4.158;2022-09-29T10:26:50;1.27;;;0.40;;
17648;SDS011;8943;51.110;-4.158;2022-09-29T10:29:23;1.10;;;0.53;;
17648;SDS011;8943;51.110;-4.158;2022-09-29T10:31:57;1.53;;;0.40;;
17648;SDS011;8943;51.110;-4.158;2022-09-29T10:34:28;2.33;;;0.47;;
17648;SDS011;8943;51.110;-4.158;2022-09-29T10:36:59;2.30;;;0.90;;
17648;SDS011;8943;51.110;-4.158;2022-09-29T10:39:31;2.40;;;0.50;;
17648;SDS011;8943;51.110;-4.158;2022-09-29T10:42:14;2.50;;;0.43;;
17648;SDS011;8943;51.110;-4.158;2022-09-29T10:44:45;2.43;;;0.43;;
17648;SDS011;8943;51.110;-4.158;2022-09-29T10:47:17;2.60;;;0.60;;
17648;SDS011;8943;51.110;-4.158;2022-09-29T10:49:47;0.90;;;0.43;;
17648;SDS011;8943;51.110;-4.158;2022-09-29T10:52:35;1.40;;;0.53;;
17648;SDS011;8943;51.110;-4.158;2022-09-29T10:55:04;4.63;;;0.50;;
17648;SDS011;8943;51.110;-4.158;2022-09-29T10:57:35;0.97;;;0.40;;
17648;SDS011;8943;51.110;-4.158;2022-09-29T11:02:57;2.67;;;0.70;;
17648;SDS011;8943;51.110;-4.158;2022-09-29T11:05:31;3.40;;;0.50;;
17648;SDS011;8943;51.110;-4.158;2022-09-29T11:08:00;0.80;;;0.30;;
17648;SDS011;8943;51.110;-4.158;2022-09-29T11:10:30;2.00;;;0.50;;
17648;SDS011;8943;51.110;-4.158;2022-09-29T11:13:13;2.57;;;0.40;;
17648;SDS011;8943;51.110;-4.158;2022-09-29T11:16:12;1.53;;;0.40;;
17648;SDS011;8943;51.110;-4.158;2022-09-29T11:18:42;1.00;;;0.40;;
17648;SDS011;8943;51.110;-4.158;2022-09-29T11:21:25;1.23;;;0.57;;
17648;SDS011;8943;51.110;-4.158;2022-09-29T11:24:14;1.53;;;0.60;;
17648;SDS011;8943;51.110;-4.158;2022-09-29T11:26:52;2.30;;;0.87;;
17648;SDS011;8943;51.110;-4.158;2022-09-29T11:29:30;0.73;;;0.50;;
17648;SDS011;8943;51.110;-4.158;2022-09-29T11:32:14;2.20;;;0.70;;
17648;SDS011;8943;51.110;-4.158;2022-09-29T11:34:59;2.10;;;0.40;;
17648;SDS011;8943;51.110;-4.158;2022-09-29T11:37:44;0.60;;;0.50;;
17648;SDS011;8943;51.110;-4.158;2022-09-29T11:40:28;1.73;;;0.40;;
17648;SDS011;8943;51.110;-4.158;2022-09-29T11:43:05;2.73;;;0.63;;
17648;SDS011;8943;51.110;-4.158;2022-09-29T11:45:53;1.17;;;0.33;;
17648;SDS011;8943;51.110;-4.158;2022-09-29T11:51:27;0.87;;;0.40;;
17648;SDS011;8943;51.110;-4.158;2022-09-29T11:54:20;1.60;;;0.60;;
17648;SDS011;8943;51.110;-4.158;2022-09-29T11:57:02;0.83;;;0.50;;
17648;SDS011;8943;51.110;-4.158;2022-09-29T11:59:47;2.57;;;0.40;;
17648;SDS011;8943;51.110;-4.158;2022-09-29T12:05:45;1.57;;;0.40;;
17648;SDS011;8943;51.110;-4.158;2022-09-29T12:08:24;3.47;;;0.50;;
17648;SDS011;8943;51.110;-4.158;2022-09-29T12:11:10;2.40;;;0.50;;
17648;SDS011;8943;51.110;-4.158;2022-09-29T12:14:06;1.10;;;0.30;;
17648;SDS011;8943;51.110;-4.158;2022-09-29T12:16:43;0.67;;;0.30;;
17648;SDS011;8943;51.110;-4.158;2022-09-29T12:19:22;0.70;;;0.40;;
17648;SDS011;8943;51.110;-4.158;2022-09-29T12:21:56;2.83;;;1.23;;
17648;SDS011;8943;51.110;-4.158;2022-09-29T12:24:32;3.30;;;0.50;;
17648;SDS011;8943;51.110;-4.158;2022-09-29T12:27:03;1.37;;;0.53;;
17648;SDS011;8943;51.110;-4.158;2022-09-29T12:29:35;1.43;;;0.40;;
17648;SDS011;8943;51.110;-4.158;2022-09-29T12:32:09;1.17;;;0.53;;
17648;SDS011;8943;51.110;-4.158;2022-09-29T12:34:45;4.27;;;0.40;;
17648;SDS011;8943;51.110;-4.158;2022-09-29T12:37:19;4.10;;;0.50;;
17648;SDS011;8943;51.110;-4.158;2022-09-29T12:39:58;1.47;;;0.57;;
17648;SDS011;8943;51.110;-4.158;2022-09-29T12:42:42;1.83;;;0.67;;
17648;SDS011;8943;51.110;-4.158;2022-09-29T12:45:24;2.47;;;0.60;;
17648;SDS011;8943;51.110;-4.158;2022-09-29T12:48:04;1.23;;;0.50;;
17648;SDS011;8943;51.110;-4.158;2022-09-29T12:50:45;0.40;;;0.30;;
17648;SDS011;8943;51.110;-4.158;2022-09-29T12:53:19;3.03;;;0.70;;
17648;SDS011;8943;51.110;-4.158;2022-09-29T12:55:53;1.77;;;0.43;;
17648;SDS011;8943;51.110;-4.158;2022-09-29T12:58:27;2.13;;;1.03;;
17648;SDS011;8943;51.110;-4.158;2022-09-29T13:01:02;2.97;;;0.80;;
17648;SDS011;8943;51.110;-4.158;2022-09-29T13:04:11;1.77;;;0.70;;
17648;SDS011;8943;51.110;-4.158;2022-09-29T13:07:06;1.40;;;0.70;;
17648;SDS011;8943;51.110;-4.158;2022-09-29T13:09:58;1.60;;;0.60;;
17648;SDS011;8943;51.110;-4.158;2022-09-29T13:12:46;1.90;;;0.50;;
17648;SDS011;8943;51.110;-4.158;2022-09-29T13:15:34;2.27;;;0.33;;
17648;SDS011;8943;51.110;-4.158;2022-09-29T13:18:17;1.57;;;0.43;;
17648;SDS011;8943;51.110;-4.158;2022-09-29T13:21:03;1.67;;;0.60;;
17648;SDS011;8943;51.110;-4.158;2022-09-29T13:23:55;3.33;;;0.90;;
17648;SDS011;8943;51.110;-4.158;2022-09-29T13:29:35;2.57;;;0.60;;
17648;SDS011;8943;51.110;-4.158;2022-09-29T13:32:12;2.27;;;0.53;;
17648;SDS011;8943;51.110;-4.158;2022-09-29T13:34:45;1.43;;;0.50;;
17648;SDS011;8943;51.110;-4.158;2022-09-29T13:37:19;0.80;;;0.57;;
17648;SDS011;8943;51.110;-4.158;2022-09-29T13:39:53;2.53;;;0.60;;
17648;SDS011;8943;51.110;-4.158;2022-09-29T13:42:39;2.40;;;0.50;;
17648;SDS011;8943;51.110;-4.158;2022-09-29T13:45:13;1.43;;;0.50;;
17648;SDS011;8943;51.110;-4.158;2022-09-29T13:47:44;1.50;;;0.83;;
17648;SDS011;8943;51.110;-4.158;2022-09-29T13:53:27;1.50;;;0.63;;
17648;SDS011;8943;51.110;-4.158;2022-09-29T13:56:08;0.60;;;0.40;;
17648;SDS011;8943;51.110;-4.158;2022-09-29T13:58:52;1.90;;;0.63;;
17648;SDS011;8943;51.110;-4.158;2022-09-29T14:01:30;1.47;;;0.30;;
17648;SDS011;8943;51.110;-4.158;2022-09-29T14:07:03;1.20;;;0.53;;
17648;SDS011;8943;51.110;-4.158;2022-09-29T14:09:34;2.17;;;0.60;;
17648;SDS011;8943;51.110;-4.158;2022-09-29T14:12:06;1.43;;;0.50;;
17648;SDS011;8943;51.110;-4.158;2022-09-29T14:14:38;2.40;;;0.50;;
17648;SDS011;8943;51.110;-4.158;2022-09-29T14:17:13;3.22;;;0.50;;
17648;SDS011;8943;51.110;-4.158;2022-09-29T14:19:48;1.02;;;0.65;;
17648;SDS011;8943;51.110;-4.158;2022-09-29T14:25:32;1.33;;;0.60;;
17648;SDS011;8943;51.110;-4.158;2022-09-29T14:28:24;0.80;;;0.57;;
17648;SDS011;8943;51.110;-4.158;2022-09-29T14:31:01;3.50;;;0.60;;
17648;SDS011;8943;51.110;-4.158;2022-09-29T14:33:33;1.33;;;0.47;;
17648;SDS011;8943;51.110;-4.158;2022-09-29T14:36:05;2.65;;;0.57;;
17648;SDS011;8943;51.110;-4.158;2022-09-29T14:38:40;1.55;;;0.40;;
17648;SDS011;8943;51.110;-4.158;2022-09-29T14:41:31;2.05;;;0.55;;
17648;SDS011;8943;51.110;-4.158;2022-09-29T14:44:07;0.90;;;0.50;;
17648;SDS011;8943;51.110;-4.158;2022-09-29T14:49:56;1.55;;;0.50;;
17648;SDS011;8943;51.110;-4.158;2022-09-29T14:53:01;2.15;;;0.75;;
17648;SDS011;8943;51.110;-4.158;2022-09-29T14:55:41;1.17;;;0.43;;
17648;SDS011;8943;51.110;-4.158;2022-09-29T14:58:32;0.68;;;0.50;;
17648;SDS011;8943;51.110;-4.158;2022-09-29T15:01:18;0.77;;;0.50;;
17648;SDS011;8943;51.110;-4.158;2022-09-29T15:03:54;1.50;;;0.50;;
17648;SDS011;8943;51.110;-4.158;2022-09-29T15:06:26;2.40;;;0.60;;
17648;SDS011;8943;51.110;-4.158;2022-09-29T15:08:58;1.98;;;0.50;;
17648;SDS011;8943;51.110;-4.158;2022-09-29T15:11:29;2.20;;;0.85;;
17648;SDS011;8943;51.110;-4.158;2022-09-29T15:14:15;3.05;;;0.65;;
17648;SDS011;8943;51.110;-4.158;2022-09-29T15:16:52;1.05;;;0.43;;
17648;SDS011;8943;51.110;-4.158;2022-09-29T15:19:40;1.40;;;0.57;;
17648;SDS011;8943;51.110;-4.158;2022-09-29T15:22:30;0.95;;;0.50;;
17648;SDS011;8943;51.110;-4.158;2022-09-29T15:25:20;1.17;;;0.60;;
17648;SDS011;8943;51.110;-4.158;2022-09-29T15:27:53;0.97;;;0.50;;
17648;SDS011;8943;51.110;-4.158;2022-09-29T15:30:23;2.47;;;0.67;;
17648;SDS011;8943;51.110;-4.158;2022-09-29T15:32:52;0.70;;;0.60;;
17648;SDS011;8943;51.110;-4.158;2022-09-29T15:35:30;1.57;;;0.40;;
17648;SDS011;8943;51.110;-4.158;2022-09-29T15:38:13;1.67;;;0.43;;
17648;SDS011;8943;51.110;-4.158;2022-09-29T15:40:43;1.03;;;0.57;;
17648;SDS011;8943;51.110;-4.158;2022-09-29T15:43:20;0.97;;;0.57;;
17648;SDS011;8943;51.110;-4.158;2022-09-29T15:45:54;0.60;;;0.50;;
17648;SDS011;8943;51.110;-4.158;2022-09-29T15:48:25;0.57;;;0.37;;
17648;SDS011;8943;51.110;-4.158;2022-09-29T15:50:54;1.77;;;0.60;;
17648;SDS011;8943;51.110;-4.158;2022-09-29T15:53:25;1.13;;;0.70;;
17648;SDS011;8943;51.110;-4.158;2022-09-29T15:55:54;1.13;;;0.60;;
17648;SDS011;8943;51.110;-4.158;2022-09-29T16:01:13;3.87;;;0.90;;
17648;SDS011;8943;51.110;-4.158;2022-09-29T16:03:44;1.60;;;0.53;;
17648;SDS011;8943;51.110;-4.158;2022-09-29T16:06:18;2.23;;;0.80;;
17648;SDS011;8943;51.110;-4.158;2022-09-29T16:08:52;1.00;;;0.50;;
17648;SDS011;8943;51.110;-4.158;2022-09-29T16:11:22;1.93;;;0.43;;